Terminal Aerodrome Forecast
Issued by NWS Paducah, KY

Home | Current Version | Previous Version | Text Only | Print | Product List | Glossary On
Versions: 1 2 3 4 5 6 7 8 9 10 11 12 13 14 15 16 17 18 19 20 21
363
FTUS43 KPAH 191913 AAB
TAFPAH
TAF AMD
KPAH 191913Z 1919/2018 16004KT P6SM SCT006
      TEMPO 1919/1921 BKN006
     FM200000 15003KT P6SM BKN020
     FM200600 13002KT 3SM BR SCT010
      TEMPO 2008/2012 1SM BR BKN010
     FM201500 14007KT P6SM BKN020=

USA.gov is the U.S. government's official web portal to all federal, state and local government web resources and services.